sensor_id;sensor_type;location;lat;lon;timestamp;P1;durP1;ratioP1;P2;durP2;ratioP2
54372;SDS011;69157;53.094;10.016;2023-04-24T00:00:05;4.55;;;3.22;;
54372;SDS011;69157;53.094;10.016;2023-04-24T00:02:31;4.75;;;3.50;;
54372;SDS011;69157;53.094;10.016;2023-04-24T00:04:57;5.40;;;3.25;;
54372;SDS011;69157;53.094;10.016;2023-04-24T00:07:27;4.82;;;3.40;;
54372;SDS011;69157;53.094;10.016;2023-04-24T00:09:53;6.65;;;3.40;;
54372;SDS011;69157;53.094;10.016;2023-04-24T00:12:19;4.18;;;2.95;;
54372;SDS011;69157;53.094;10.016;2023-04-24T00:14:45;4.47;;;3.00;;
54372;SDS011;69157;53.094;10.016;2023-04-24T00:17:12;4.30;;;3.13;;
54372;SDS011;69157;53.094;10.016;2023-04-24T00:19:38;4.72;;;3.38;;
54372;SDS011;69157;53.094;10.016;2023-04-24T00:22:04;3.58;;;2.50;;
54372;SDS011;69157;53.094;10.016;2023-04-24T00:24:30;4.40;;;2.88;;
54372;SDS011;69157;53.094;10.016;2023-04-24T00:26:56;3.88;;;2.58;;
54372;SDS011;69157;53.094;10.016;2023-04-24T00:29:22;3.22;;;2.33;;
54372;SDS011;69157;53.094;10.016;2023-04-24T00:31:48;3.70;;;2.60;;
54372;SDS011;69157;53.094;10.016;2023-04-24T00:34:14;3.15;;;2.20;;
54372;SDS011;69157;53.094;10.016;2023-04-24T00:36:41;5.25;;;2.10;;
54372;SDS011;69157;53.094;10.016;2023-04-24T00:39:07;3.35;;;2.53;;
54372;SDS011;69157;53.094;10.016;2023-04-24T00:41:34;3.45;;;2.40;;
54372;SDS011;69157;53.094;10.016;2023-04-24T00:44:00;4.05;;;2.30;;
54372;SDS011;69157;53.094;10.016;2023-04-24T00:46:26;3.38;;;2.13;;
54372;SDS011;69157;53.094;10.016;2023-04-24T00:48:52;2.88;;;2.00;;
54372;SDS011;69157;53.094;10.016;2023-04-24T00:51:18;2.15;;;1.75;;
54372;SDS011;69157;53.094;10.016;2023-04-24T00:53:45;3.95;;;2.40;;
54372;SDS011;69157;53.094;10.016;2023-04-24T00:56:11;2.88;;;1.90;;
54372;SDS011;69157;53.094;10.016;2023-04-24T00:58:38;3.28;;;2.20;;
54372;SDS011;69157;53.094;10.016;2023-04-24T01:01:04;3.00;;;2.03;;
54372;SDS011;69157;53.094;10.016;2023-04-24T01:03:32;2.55;;;1.88;;
54372;SDS011;69157;53.094;10.016;2023-04-24T01:05:58;2.75;;;1.77;;
54372;SDS011;69157;53.094;10.016;2023-04-24T01:08:25;2.33;;;1.55;;
54372;SDS011;69157;53.094;10.016;2023-04-24T01:10:52;2.45;;;2.03;;
54372;SDS011;69157;53.094;10.016;2023-04-24T01:13:19;2.33;;;1.80;;
54372;SDS011;69157;53.094;10.016;2023-04-24T01:15:45;2.70;;;1.80;;
54372;SDS011;69157;53.094;10.016;2023-04-24T01:18:12;2.25;;;1.67;;
54372;SDS011;69157;53.094;10.016;2023-04-24T01:20:41;2.72;;;2.00;;
54372;SDS011;69157;53.094;10.016;2023-04-24T01:23:09;2.33;;;1.67;;
54372;SDS011;69157;53.094;10.016;2023-04-24T01:25:35;2.22;;;1.55;;
54372;SDS011;69157;53.094;10.016;2023-04-24T01:28:02;4.60;;;1.90;;
54372;SDS011;69157;53.094;10.016;2023-04-24T01:30:28;1.95;;;1.77;;
54372;SDS011;69157;53.094;10.016;2023-04-24T01:32:54;2.45;;;1.50;;
54372;SDS011;69157;53.094;10.016;2023-04-24T01:35:21;3.25;;;1.42;;
54372;SDS011;69157;53.094;10.016;2023-04-24T01:37:47;1.63;;;1.30;;
54372;SDS011;69157;53.094;10.016;2023-04-24T01:40:13;2.03;;;1.48;;
54372;SDS011;69157;53.094;10.016;2023-04-24T01:42:40;2.00;;;1.50;;
54372;SDS011;69157;53.094;10.016;2023-04-24T01:45:07;1.50;;;1.33;;
54372;SDS011;69157;53.094;10.016;2023-04-24T01:47:35;1.70;;;1.30;;
54372;SDS011;69157;53.094;10.016;2023-04-24T01:50:02;1.75;;;1.40;;
54372;SDS011;69157;53.094;10.016;2023-04-24T01:52:28;1.13;;;1.00;;
54372;SDS011;69157;53.094;10.016;2023-04-24T01:54:56;1.85;;;1.10;;
54372;SDS011;69157;53.094;10.016;2023-04-24T01:57:22;1.60;;;1.23;;
54372;SDS011;69157;53.094;10.016;2023-04-24T01:59:48;3.15;;;1.65;;
54372;SDS011;69157;53.094;10.016;2023-04-24T02:02:14;1.63;;;1.13;;
54372;SDS011;69157;53.094;10.016;2023-04-24T02:04:40;1.50;;;1.40;;
54372;SDS011;69157;53.094;10.016;2023-04-24T02:07:06;2.30;;;1.55;;
54372;SDS011;69157;53.094;10.016;2023-04-24T02:09:32;1.75;;;1.20;;
54372;SDS011;69157;53.094;10.016;2023-04-24T02:11:58;1.83;;;1.30;;
54372;SDS011;69157;53.094;10.016;2023-04-24T02:14:25;1.50;;;1.10;;
54372;SDS011;69157;53.094;10.016;2023-04-24T02:16:51;1.60;;;1.20;;
54372;SDS011;69157;53.094;10.016;2023-04-24T02:19:18;2.33;;;1.70;;
54372;SDS011;69157;53.094;10.016;2023-04-24T02:21:44;1.48;;;1.20;;
54372;SDS011;69157;53.094;10.016;2023-04-24T02:24:10;1.83;;;1.25;;
54372;SDS011;69157;53.094;10.016;2023-04-24T02:26:36;1.60;;;1.20;;
54372;SDS011;69157;53.094;10.016;2023-04-24T02:29:02;2.20;;;1.20;;
54372;SDS011;69157;53.094;10.016;2023-04-24T02:31:28;1.42;;;1.33;;
54372;SDS011;69157;53.094;10.016;2023-04-24T02:33:54;1.10;;;1.00;;
54372;SDS011;69157;53.094;10.016;2023-04-24T02:36:20;1.75;;;1.20;;
54372;SDS011;69157;53.094;10.016;2023-04-24T02:38:46;1.35;;;1.10;;
54372;SDS011;69157;53.094;10.016;2023-04-24T02:41:12;2.97;;;1.20;;
54372;SDS011;69157;53.094;10.016;2023-04-24T02:43:38;1.00;;;0.90;;
54372;SDS011;69157;53.094;10.016;2023-04-24T02:46:04;0.98;;;0.80;;
54372;SDS011;69157;53.094;10.016;2023-04-24T02:48:30;1.25;;;0.95;;
54372;SDS011;69157;53.094;10.016;2023-04-24T02:50:56;1.85;;;1.13;;
54372;SDS011;69157;53.094;10.016;2023-04-24T02:53:22;0.80;;;0.80;;
54372;SDS011;69157;53.094;10.016;2023-04-24T02:55:48;1.50;;;1.15;;
54372;SDS011;69157;53.094;10.016;2023-04-24T02:58:14;1.42;;;0.93;;
54372;SDS011;69157;53.094;10.016;2023-04-24T03:00:41;1.13;;;0.93;;
54372;SDS011;69157;53.094;10.016;2023-04-24T03:03:08;1.60;;;1.17;;
54372;SDS011;69157;53.094;10.016;2023-04-24T03:05:34;1.10;;;0.90;;
54372;SDS011;69157;53.094;10.016;2023-04-24T03:08:00;1.25;;;1.00;;
54372;SDS011;69157;53.094;10.016;2023-04-24T03:10:26;1.60;;;0.98;;
54372;SDS011;69157;53.094;10.016;2023-04-24T03:12:52;1.20;;;1.00;;
54372;SDS011;69157;53.094;10.016;2023-04-24T03:15:19;1.70;;;1.02;;
54372;SDS011;69157;53.094;10.016;2023-04-24T03:17:46;0.80;;;0.80;;
54372;SDS011;69157;53.094;10.016;2023-04-24T03:20:12;0.68;;;0.68;;
54372;SDS011;69157;53.094;10.016;2023-04-24T03:22:38;0.93;;;0.80;;
54372;SDS011;69157;53.094;10.016;2023-04-24T03:25:04;2.95;;;0.95;;
54372;SDS011;69157;53.094;10.016;2023-04-24T03:27:31;1.83;;;0.80;;
54372;SDS011;69157;53.094;10.016;2023-04-24T03:29:57;2.55;;;1.10;;
54372;SDS011;69157;53.094;10.016;2023-04-24T03:32:23;1.13;;;0.95;;
54372;SDS011;69157;53.094;10.016;2023-04-24T03:34:49;1.27;;;0.85;;
54372;SDS011;69157;53.094;10.016;2023-04-24T03:37:15;2.72;;;0.95;;
54372;SDS011;69157;53.094;10.016;2023-04-24T03:39:42;1.33;;;1.00;;
54372;SDS011;69157;53.094;10.016;2023-04-24T03:42:08;1.63;;;1.00;;
54372;SDS011;69157;53.094;10.016;2023-04-24T03:44:34;1.05;;;0.80;;
54372;SDS011;69157;53.094;10.016;2023-04-24T03:47:01;0.85;;;0.77;;
54372;SDS011;69157;53.094;10.016;2023-04-24T03:49:27;0.85;;;0.77;;
54372;SDS011;69157;53.094;10.016;2023-04-24T03:51:53;0.80;;;0.63;;
54372;SDS011;69157;53.094;10.016;2023-04-24T03:54:19;0.95;;;0.80;;
54372;SDS011;69157;53.094;10.016;2023-04-24T03:56:45;0.70;;;0.70;;
54372;SDS011;69157;53.094;10.016;2023-04-24T03:59:11;0.90;;;0.80;;
54372;SDS011;69157;53.094;10.016;2023-04-24T04:01:38;0.70;;;0.70;;
54372;SDS011;69157;53.094;10.016;2023-04-24T04:04:05;0.70;;;0.70;;
54372;SDS011;69157;53.094;10.016;2023-04-24T04:06:31;0.70;;;0.70;;
54372;SDS011;69157;53.094;10.016;2023-04-24T04:08:57;0.75;;;0.60;;
54372;SDS011;69157;53.094;10.016;2023-04-24T04:11:24;0.65;;;0.65;;
54372;SDS011;69157;53.094;10.016;2023-04-24T04:13:50;1.30;;;0.80;;
54372;SDS011;69157;53.094;10.016;2023-04-24T04:16:16;0.60;;;0.60;;
54372;SDS011;69157;53.094;10.016;2023-04-24T04:18:42;0.98;;;0.70;;
54372;SDS011;69157;53.094;10.016;2023-04-24T04:21:08;0.93;;;0.73;;
54372;SDS011;69157;53.094;10.016;2023-04-24T04:23:35;0.90;;;0.57;;
54372;SDS011;69157;53.094;10.016;2023-04-24T04:26:01;0.93;;;0.65;;
54372;SDS011;69157;53.094;10.016;2023-04-24T04:28:28;1.15;;;0.80;;
54372;SDS011;69157;53.094;10.016;2023-04-24T04:30:55;0.73;;;0.57;;
54372;SDS011;69157;53.094;10.016;2023-04-24T04:33:23;2.55;;;0.70;;
54372;SDS011;69157;53.094;10.016;2023-04-24T04:35:49;1.02;;;0.80;;
54372;SDS011;69157;53.094;10.016;2023-04-24T04:38:17;0.68;;;0.68;;
54372;SDS011;69157;53.094;10.016;2023-04-24T04:40:43;0.82;;;0.68;;
54372;SDS011;69157;53.094;10.016;2023-04-24T04:43:09;0.75;;;0.75;;
54372;SDS011;69157;53.094;10.016;2023-04-24T04:45:36;0.77;;;0.60;;
54372;SDS011;69157;53.094;10.016;2023-04-24T04:48:04;0.50;;;0.50;;
54372;SDS011;69157;53.094;10.016;2023-04-24T04:50:32;0.88;;;0.70;;
54372;SDS011;69157;53.094;10.016;2023-04-24T04:52:58;0.63;;;0.60;;
54372;SDS011;69157;53.094;10.016;2023-04-24T04:55:24;0.60;;;0.50;;
54372;SDS011;69157;53.094;10.016;2023-04-24T04:57:50;0.50;;;0.47;;
54372;SDS011;69157;53.094;10.016;2023-04-24T05:00:17;1.25;;;0.73;;
54372;SDS011;69157;53.094;10.016;2023-04-24T05:02:43;1.00;;;0.60;;
54372;SDS011;69157;53.094;10.016;2023-04-24T05:05:09;0.40;;;0.40;;
54372;SDS011;69157;53.094;10.016;2023-04-24T05:07:35;0.50;;;0.50;;
54372;SDS011;69157;53.094;10.016;2023-04-24T05:10:01;0.40;;;0.40;;
54372;SDS011;69157;53.094;10.016;2023-04-24T05:12:27;0.85;;;0.50;;
54372;SDS011;69157;53.094;10.016;2023-04-24T05:14:53;0.77;;;0.50;;
54372;SDS011;69157;53.094;10.016;2023-04-24T05:17:19;0.50;;;0.50;;
54372;SDS011;69157;53.094;10.016;2023-04-24T05:19:45;0.77;;;0.60;;
54372;SDS011;69157;53.094;10.016;2023-04-24T05:22:11;0.93;;;0.60;;
54372;SDS011;69157;53.094;10.016;2023-04-24T05:24:37;1.65;;;1.05;;
54372;SDS011;69157;53.094;10.016;2023-04-24T05:27:03;0.70;;;0.70;;
54372;SDS011;69157;53.094;10.016;2023-04-24T05:29:30;0.60;;;0.60;;
54372;SDS011;69157;53.094;10.016;2023-04-24T05:31:56;0.65;;;0.60;;
54372;SDS011;69157;53.094;10.016;2023-04-24T05:34:22;1.25;;;0.68;;
54372;SDS011;69157;53.094;10.016;2023-04-24T05:36:49;0.95;;;0.68;;
54372;SDS011;69157;53.094;10.016;2023-04-24T05:39:15;1.02;;;0.68;;
54372;SDS011;69157;53.094;10.016;2023-04-24T05:41:41;3.45;;;0.80;;
54372;SDS011;69157;53.094;10.016;2023-04-24T05:44:08;2.33;;;0.75;;
54372;SDS011;69157;53.094;10.016;2023-04-24T05:46:34;1.30;;;0.80;;
54372;SDS011;69157;53.094;10.016;2023-04-24T05:49:00;0.75;;;0.60;;
54372;SDS011;69157;53.094;10.016;2023-04-24T05:51:27;0.80;;;0.70;;
54372;SDS011;69157;53.094;10.016;2023-04-24T05:53:53;1.55;;;0.93;;
54372;SDS011;69157;53.094;10.016;2023-04-24T05:56:19;0.63;;;0.63;;
54372;SDS011;69157;53.094;10.016;2023-04-24T05:58:45;0.82;;;0.70;;
54372;SDS011;69157;53.094;10.016;2023-04-24T06:01:13;0.68;;;0.68;;
54372;SDS011;69157;53.094;10.016;2023-04-24T06:03:40;1.08;;;0.80;;
54372;SDS011;69157;53.094;10.016;2023-04-24T06:06:06;0.70;;;0.70;;
54372;SDS011;69157;53.094;10.016;2023-04-24T06:08:32;0.70;;;0.70;;
54372;SDS011;69157;53.094;10.016;2023-04-24T06:10:58;1.63;;;0.85;;
54372;SDS011;69157;53.094;10.016;2023-04-24T06:13:24;0.70;;;0.70;;
54372;SDS011;69157;53.094;10.016;2023-04-24T06:15:50;0.88;;;0.70;;
54372;SDS011;69157;53.094;10.016;2023-04-24T06:18:17;0.60;;;0.60;;
54372;SDS011;69157;53.094;10.016;2023-04-24T06:20:43;0.73;;;0.60;;
54372;SDS011;69157;53.094;10.016;2023-04-24T06:23:09;0.70;;;0.60;;
54372;SDS011;69157;53.094;10.016;2023-04-24T06:25:35;0.90;;;0.88;;
54372;SDS011;69157;53.094;10.016;2023-04-24T06:28:01;1.05;;;0.70;;
54372;SDS011;69157;53.094;10.016;2023-04-24T06:30:27;1.10;;;0.77;;
54372;SDS011;69157;53.094;10.016;2023-04-24T06:32:53;0.70;;;0.70;;
54372;SDS011;69157;53.094;10.016;2023-04-24T06:35:19;0.77;;;0.60;;
54372;SDS011;69157;53.094;10.016;2023-04-24T06:37:45;0.63;;;0.63;;
54372;SDS011;69157;53.094;10.016;2023-04-24T06:40:11;0.60;;;0.60;;
54372;SDS011;69157;53.094;10.016;2023-04-24T06:42:37;0.70;;;0.60;;
54372;SDS011;69157;53.094;10.016;2023-04-24T06:45:04;0.50;;;0.50;;
54372;SDS011;69157;53.094;10.016;2023-04-24T06:47:30;0.50;;;0.50;;
54372;SDS011;69157;53.094;10.016;2023-04-24T06:49:56;0.40;;;0.40;;
54372;SDS011;69157;53.094;10.016;2023-04-24T06:52:22;0.65;;;0.60;;
54372;SDS011;69157;53.094;10.016;2023-04-24T06:54:48;0.75;;;0.60;;
54372;SDS011;69157;53.094;10.016;2023-04-24T06:57:14;0.60;;;0.50;;
54372;SDS011;69157;53.094;10.016;2023-04-24T06:59:43;0.60;;;0.60;;
54372;SDS011;69157;53.094;10.016;2023-04-24T07:02:09;0.77;;;0.65;;
54372;SDS011;69157;53.094;10.016;2023-04-24T07:04:35;0.73;;;0.63;;
54372;SDS011;69157;53.094;10.016;2023-04-24T07:07:02;1.05;;;0.77;;
54372;SDS011;69157;53.094;10.016;2023-04-24T07:09:28;1.05;;;0.80;;
54372;SDS011;69157;53.094;10.016;2023-04-24T07:11:54;0.80;;;0.70;;
54372;SDS011;69157;53.094;10.016;2023-04-24T07:14:21;1.00;;;0.90;;
54372;SDS011;69157;53.094;10.016;2023-04-24T07:16:47;0.75;;;0.75;;
54372;SDS011;69157;53.094;10.016;2023-04-24T07:19:13;1.10;;;1.00;;
54372;SDS011;69157;53.094;10.016;2023-04-24T07:21:39;1.25;;;1.00;;
54372;SDS011;69157;53.094;10.016;2023-04-24T07:24:05;0.95;;;0.85;;
54372;SDS011;69157;53.094;10.016;2023-04-24T07:26:35;1.10;;;0.80;;
54372;SDS011;69157;53.094;10.016;2023-04-24T07:29:01;1.05;;;0.80;;
54372;SDS011;69157;53.094;10.016;2023-04-24T07:31:27;1.40;;;1.05;;
54372;SDS011;69157;53.094;10.016;2023-04-24T07:33:54;1.38;;;1.27;;
54372;SDS011;69157;53.094;10.016;2023-04-24T07:36:22;1.98;;;1.25;;
54372;SDS011;69157;53.094;10.016;2023-04-24T07:38:49;1.67;;;1.10;;
54372;SDS011;69157;53.094;10.016;2023-04-24T07:41:15;2.08;;;1.13;;
54372;SDS011;69157;53.094;10.016;2023-04-24T07:43:41;2.03;;;1.30;;
54372;SDS011;69157;53.094;10.016;2023-04-24T07:46:08;1.23;;;1.13;;
54372;SDS011;69157;53.094;10.016;2023-04-24T07:48:34;2.17;;;1.63;;
54372;SDS011;69157;53.094;10.016;2023-04-24T07:51:00;2.60;;;1.60;;
54372;SDS011;69157;53.094;10.016;2023-04-24T07:53:26;1.90;;;1.45;;
54372;SDS011;69157;53.094;10.016;2023-04-24T07:55:53;1.65;;;1.52;;
54372;SDS011;69157;53.094;10.016;2023-04-24T07:58:20;2.17;;;1.70;;
54372;SDS011;69157;53.094;10.016;2023-04-24T08:00:46;2.80;;;1.38;;
54372;SDS011;69157;53.094;10.016;2023-04-24T08:03:12;2.03;;;1.30;;
54372;SDS011;69157;53.094;10.016;2023-04-24T08:05:38;2.40;;;1.70;;
54372;SDS011;69157;53.094;10.016;2023-04-24T08:08:04;3.72;;;1.60;;
54372;SDS011;69157;53.094;10.016;2023-04-24T08:10:30;2.85;;;1.95;;
54372;SDS011;69157;53.094;10.016;2023-04-24T08:12:56;4.22;;;2.72;;
54372;SDS011;69157;53.094;10.016;2023-04-24T08:15:22;4.80;;;2.60;;
54372;SDS011;69157;53.094;10.016;2023-04-24T08:17:48;4.38;;;2.58;;
54372;SDS011;69157;53.094;10.016;2023-04-24T08:20:15;5.55;;;2.75;;
54372;SDS011;69157;53.094;10.016;2023-04-24T08:22:41;3.58;;;2.80;;
54372;SDS011;69157;53.094;10.016;2023-04-24T08:25:08;4.78;;;3.00;;
54372;SDS011;69157;53.094;10.016;2023-04-24T08:27:35;4.13;;;2.72;;
54372;SDS011;69157;53.094;10.016;2023-04-24T08:30:02;5.63;;;3.20;;
54372;SDS011;69157;53.094;10.016;2023-04-24T08:32:28;4.25;;;3.00;;
54372;SDS011;69157;53.094;10.016;2023-04-24T08:34:54;4.43;;;2.80;;
54372;SDS011;69157;53.094;10.016;2023-04-24T08:37:21;5.50;;;3.30;;
54372;SDS011;69157;53.094;10.016;2023-04-24T08:39:48;5.13;;;2.92;;
54372;SDS011;69157;53.094;10.016;2023-04-24T08:42:14;5.15;;;3.08;;
54372;SDS011;69157;53.094;10.016;2023-04-24T08:44:41;4.88;;;2.97;;
54372;SDS011;69157;53.094;10.016;2023-04-24T08:47:07;7.35;;;3.05;;
54372;SDS011;69157;53.094;10.016;2023-04-24T08:49:33;4.20;;;3.10;;
54372;SDS011;69157;53.094;10.016;2023-04-24T08:51:59;4.78;;;2.78;;
54372;SDS011;69157;53.094;10.016;2023-04-24T08:54:26;3.83;;;2.33;;
54372;SDS011;69157;53.094;10.016;2023-04-24T08:56:52;5.10;;;2.33;;
54372;SDS011;69157;53.094;10.016;2023-04-24T08:59:19;5.45;;;3.30;;
54372;SDS011;69157;53.094;10.016;2023-04-24T09:01:47;4.78;;;2.97;;
54372;SDS011;69157;53.094;10.016;2023-04-24T09:04:14;5.55;;;3.58;;
54372;SDS011;69157;53.094;10.016;2023-04-24T09:06:41;4.55;;;2.53;;
54372;SDS011;69157;53.094;10.016;2023-04-24T09:09:07;6.55;;;2.90;;
54372;SDS011;69157;53.094;10.016;2023-04-24T09:11:34;5.97;;;3.05;;
54372;SDS011;69157;53.094;10.016;2023-04-24T09:14:00;5.85;;;3.22;;
54372;SDS011;69157;53.094;10.016;2023-04-24T09:16:26;4.85;;;2.80;;
54372;SDS011;69157;53.094;10.016;2023-04-24T09:18:53;6.15;;;3.50;;
54372;SDS011;69157;53.094;10.016;2023-04-24T09:21:20;5.75;;;3.35;;
54372;SDS011;69157;53.094;10.016;2023-04-24T09:23:47;6.88;;;2.97;;
54372;SDS011;69157;53.094;10.016;2023-04-24T09:26:22;5.60;;;3.30;;
54372;SDS011;69157;53.094;10.016;2023-04-24T09:28:49;5.95;;;3.35;;
54372;SDS011;69157;53.094;10.016;2023-04-24T09:31:18;6.13;;;3.50;;
54372;SDS011;69157;53.094;10.016;2023-04-24T09:36:29;6.20;;;3.55;;
54372;SDS011;69157;53.094;10.016;2023-04-24T09:39:00;5.25;;;3.28;;
54372;SDS011;69157;53.094;10.016;2023-04-24T09:41:27;7.30;;;3.90;;
54372;SDS011;69157;53.094;10.016;2023-04-24T09:43:56;6.20;;;3.53;;
54372;SDS011;69157;53.094;10.016;2023-04-24T09:46:29;5.32;;;2.95;;
54372;SDS011;69157;53.094;10.016;2023-04-24T09:48:56;9.45;;;3.40;;
54372;SDS011;69157;53.094;10.016;2023-04-24T09:51:35;6.82;;;4.10;;
54372;SDS011;69157;53.094;10.016;2023-04-24T09:54:02;6.75;;;3.67;;
54372;SDS011;69157;53.094;10.016;2023-04-24T09:56:28;5.90;;;3.63;;
54372;SDS011;69157;53.094;10.016;2023-04-24T09:59:04;5.90;;;3.60;;
54372;SDS011;69157;53.094;10.016;2023-04-24T10:01:31;7.88;;;3.63;;
54372;SDS011;69157;53.094;10.016;2023-04-24T10:03:57;5.60;;;3.42;;
54372;SDS011;69157;53.094;10.016;2023-04-24T10:06:29;6.28;;;3.70;;
54372;SDS011;69157;53.094;10.016;2023-04-24T10:08:55;6.70;;;3.50;;
54372;SDS011;69157;53.094;10.016;2023-04-24T10:11:23;8.65;;;4.32;;
54372;SDS011;69157;53.094;10.016;2023-04-24T10:13:49;8.18;;;4.10;;
54372;SDS011;69157;53.094;10.016;2023-04-24T10:16:16;5.78;;;3.50;;
54372;SDS011;69157;53.094;10.016;2023-04-24T10:18:42;6.72;;;3.70;;
54372;SDS011;69157;53.094;10.016;2023-04-24T10:21:08;5.63;;;3.60;;
54372;SDS011;69157;53.094;10.016;2023-04-24T10:23:35;5.47;;;3.50;;
54372;SDS011;69157;53.094;10.016;2023-04-24T10:26:01;5.43;;;3.13;;
54372;SDS011;69157;53.094;10.016;2023-04-24T10:28:27;4.85;;;2.80;;
54372;SDS011;69157;53.094;10.016;2023-04-24T10:30:54;6.13;;;3.35;;
54372;SDS011;69157;53.094;10.016;2023-04-24T10:33:21;4.18;;;3.10;;
54372;SDS011;69157;53.094;10.016;2023-04-24T10:35:48;4.65;;;2.70;;
54372;SDS011;69157;53.094;10.016;2023-04-24T10:38:17;5.40;;;3.17;;
54372;SDS011;69157;53.094;10.016;2023-04-24T10:40:49;4.53;;;3.13;;
54372;SDS011;69157;53.094;10.016;2023-04-24T10:43:16;6.35;;;2.90;;
54372;SDS011;69157;53.094;10.016;2023-04-24T10:45:42;3.88;;;2.70;;
54372;SDS011;69157;53.094;10.016;2023-04-24T10:48:26;5.55;;;2.80;;
54372;SDS011;69157;53.094;10.016;2023-04-24T10:50:52;5.82;;;3.47;;
54372;SDS011;69157;53.094;10.016;2023-04-24T10:53:20;4.25;;;2.83;;
54372;SDS011;69157;53.094;10.016;2023-04-24T10:55:49;3.20;;;2.08;;
54372;SDS011;69157;53.094;10.016;2023-04-24T10:58:15;6.45;;;3.08;;
54372;SDS011;69157;53.094;10.016;2023-04-24T11:00:42;4.35;;;2.70;;
54372;SDS011;69157;53.094;10.016;2023-04-24T11:03:26;4.18;;;3.20;;
54372;SDS011;69157;53.094;10.016;2023-04-24T11:06:02;4.85;;;3.00;;
54372;SDS011;69157;53.094;10.016;2023-04-24T11:08:29;3.70;;;2.70;;
54372;SDS011;69157;53.094;10.016;2023-04-24T11:11:00;8.27;;;3.10;;
54372;SDS011;69157;53.094;10.016;2023-04-24T11:13:27;4.38;;;2.58;;
54372;SDS011;69157;53.094;10.016;2023-04-24T11:18:39;4.72;;;2.60;;
54372;SDS011;69157;53.094;10.016;2023-04-24T11:21:12;5.85;;;2.70;;
54372;SDS011;69157;53.094;10.016;2023-04-24T11:23:38;4.07;;;2.72;;
54372;SDS011;69157;53.094;10.016;2023-04-24T11:26:12;4.20;;;2.72;;
54372;SDS011;69157;53.094;10.016;2023-04-24T11:28:48;4.00;;;2.85;;
54372;SDS011;69157;53.094;10.016;2023-04-24T11:34:05;4.13;;;2.90;;
54372;SDS011;69157;53.094;10.016;2023-04-24T11:36:31;4.30;;;2.58;;
54372;SDS011;69157;53.094;10.016;2023-04-24T11:38:57;3.63;;;2.42;;
54372;SDS011;69157;53.094;10.016;2023-04-24T11:41:23;3.60;;;2.50;;
54372;SDS011;69157;53.094;10.016;2023-04-24T11:43:50;3.03;;;2.30;;
54372;SDS011;69157;53.094;10.016;2023-04-24T11:46:17;3.45;;;2.40;;
54372;SDS011;69157;53.094;10.016;2023-04-24T11:48:46;2.70;;;2.10;;
54372;SDS011;69157;53.094;10.016;2023-04-24T11:51:12;4.95;;;2.60;;
54372;SDS011;69157;53.094;10.016;2023-04-24T11:53:38;3.20;;;2.40;;
54372;SDS011;69157;53.094;10.016;2023-04-24T11:56:04;2.47;;;2.10;;
54372;SDS011;69157;53.094;10.016;2023-04-24T11:58:40;3.13;;;2.00;;
54372;SDS011;69157;53.094;10.016;2023-04-24T12:01:06;2.53;;;1.88;;
54372;SDS011;69157;53.094;10.016;2023-04-24T12:03:32;3.72;;;1.90;;
54372;SDS011;69157;53.094;10.016;2023-04-24T12:06:05;2.10;;;1.67;;
54372;SDS011;69157;53.094;10.016;2023-04-24T12:08:32;2.67;;;1.70;;
54372;SDS011;69157;53.094;10.016;2023-04-24T12:10:59;2.05;;;1.75;;
54372;SDS011;69157;53.094;10.016;2023-04-24T12:13:26;2.63;;;2.20;;
54372;SDS011;69157;53.094;10.016;2023-04-24T12:15:52;2.45;;;1.77;;
54372;SDS011;69157;53.094;10.016;2023-04-24T12:18:18;2.78;;;2.00;;
54372;SDS011;69157;53.094;10.016;2023-04-24T12:20:47;3.42;;;2.08;;
54372;SDS011;69157;53.094;10.016;2023-04-24T12:23:13;2.80;;;1.92;;
54372;SDS011;69157;53.094;10.016;2023-04-24T12:25:40;2.10;;;1.73;;
54372;SDS011;69157;53.094;10.016;2023-04-24T12:30:39;2.45;;;1.58;;
54372;SDS011;69157;53.094;10.016;2023-04-24T12:33:05;2.63;;;2.22;;
54372;SDS011;69157;53.094;10.016;2023-04-24T12:35:32;2.38;;;1.75;;
54372;SDS011;69157;53.094;10.016;2023-04-24T12:38:14;1.58;;;1.35;;
54372;SDS011;69157;53.094;10.016;2023-04-24T12:40:41;2.00;;;1.40;;
54372;SDS011;69157;53.094;10.016;2023-04-24T12:43:20;2.38;;;1.35;;
54372;SDS011;69157;53.094;10.016;2023-04-24T12:45:47;1.88;;;1.40;;
54372;SDS011;69157;53.094;10.016;2023-04-24T12:48:13;1.63;;;1.30;;
54372;SDS011;69157;53.094;10.016;2023-04-24T12:50:39;1.52;;;1.40;;
54372;SDS011;69157;53.094;10.016;2023-04-24T12:53:06;3.60;;;1.67;;
54372;SDS011;69157;53.094;10.016;2023-04-24T12:55:32;2.30;;;1.40;;
54372;SDS011;69157;53.094;10.016;2023-04-24T12:57:58;1.45;;;1.30;;
54372;SDS011;69157;53.094;10.016;2023-04-24T13:00:24;1.27;;;1.17;;
54372;SDS011;69157;53.094;10.016;2023-04-24T13:02:50;1.77;;;1.50;;
54372;SDS011;69157;53.094;10.016;2023-04-24T13:05:17;1.48;;;1.38;;
54372;SDS011;69157;53.094;10.016;2023-04-24T13:07:43;1.45;;;1.25;;
54372;SDS011;69157;53.094;10.016;2023-04-24T13:10:09;2.75;;;1.50;;
54372;SDS011;69157;53.094;10.016;2023-04-24T13:12:35;1.50;;;1.20;;
54372;SDS011;69157;53.094;10.016;2023-04-24T13:15:01;1.70;;;1.20;;
54372;SDS011;69157;53.094;10.016;2023-04-24T13:17:28;1.58;;;1.23;;
54372;SDS011;69157;53.094;10.016;2023-04-24T13:19:55;1.77;;;1.40;;
54372;SDS011;69157;53.094;10.016;2023-04-24T13:22:21;1.55;;;1.35;;
54372;SDS011;69157;53.094;10.016;2023-04-24T13:24:47;2.63;;;1.30;;
54372;SDS011;69157;53.094;10.016;2023-04-24T13:27:16;1.55;;;1.27;;
54372;SDS011;69157;53.094;10.016;2023-04-24T13:29:42;1.73;;;1.33;;
54372;SDS011;69157;53.094;10.016;2023-04-24T13:32:08;1.95;;;1.40;;
54372;SDS011;69157;53.094;10.016;2023-04-24T13:34:34;2.25;;;1.60;;
54372;SDS011;69157;53.094;10.016;2023-04-24T13:37:01;1.65;;;1.40;;
54372;SDS011;69157;53.094;10.016;2023-04-24T13:39:31;1.48;;;1.20;;
54372;SDS011;69157;53.094;10.016;2023-04-24T13:41:58;2.55;;;1.58;;
54372;SDS011;69157;53.094;10.016;2023-04-24T13:44:24;1.48;;;1.25;;
54372;SDS011;69157;53.094;10.016;2023-04-24T13:46:50;1.85;;;1.40;;
54372;SDS011;69157;53.094;10.016;2023-04-24T13:49:19;1.70;;;1.40;;
54372;SDS011;69157;53.094;10.016;2023-04-24T13:51:45;2.30;;;1.60;;
54372;SDS011;69157;53.094;10.016;2023-04-24T13:54:11;1.63;;;1.23;;
54372;SDS011;69157;53.094;10.016;2023-04-24T13:56:37;1.75;;;1.58;;
54372;SDS011;69157;53.094;10.016;2023-04-24T13:59:04;1.73;;;1.30;;
54372;SDS011;69157;53.094;10.016;2023-04-24T14:01:30;1.50;;;1.20;;
54372;SDS011;69157;53.094;10.016;2023-04-24T14:03:56;1.10;;;1.00;;
54372;SDS011;69157;53.094;10.016;2023-04-24T14:06:22;1.70;;;1.08;;
54372;SDS011;69157;53.094;10.016;2023-04-24T14:08:49;1.13;;;1.02;;
54372;SDS011;69157;53.094;10.016;2023-04-24T14:11:15;0.70;;;0.70;;
54372;SDS011;69157;53.094;10.016;2023-04-24T14:13:41;1.10;;;0.70;;
54372;SDS011;69157;53.094;10.016;2023-04-24T14:16:08;0.60;;;0.60;;
54372;SDS011;69157;53.094;10.016;2023-04-24T14:18:34;0.70;;;0.70;;
54372;SDS011;69157;53.094;10.016;2023-04-24T14:21:01;0.93;;;0.80;;
54372;SDS011;69157;53.094;10.016;2023-04-24T14:23:27;1.33;;;0.70;;
54372;SDS011;69157;53.094;10.016;2023-04-24T14:25:57;1.55;;;0.80;;
54372;SDS011;69157;53.094;10.016;2023-04-24T14:28:23;1.42;;;0.90;;
54372;SDS011;69157;53.094;10.016;2023-04-24T14:30:49;0.90;;;0.80;;
54372;SDS011;69157;53.094;10.016;2023-04-24T14:33:15;1.00;;;0.70;;
54372;SDS011;69157;53.094;10.016;2023-04-24T14:35:42;1.30;;;0.93;;
54372;SDS011;69157;53.094;10.016;2023-04-24T14:38:08;0.95;;;0.80;;
54372;SDS011;69157;53.094;10.016;2023-04-24T14:40:35;2.08;;;1.00;;